• Join FlightAware (Why Join?)
  • Login
  • US Flag 
02:51AM EST


 

Airport Tracker/Info


-or-


 

Live Flight TrackerFlight Track Log ✈ UAL4234 ✈ 14-Apr-2013 ✈ KIAH - KRDU

Flight Track Log - Related Links

Times and Time Zones

All times are in EDT time to prevent confusion due to time zone crossing. See the UAL4234 flight status page for this flight to view local times or setup timezone preferences in your user account.

Time Position Orientation Groundspeed Altitude Reporting Facility
EDT Latitude Longitude Course Direction KTS MPH feet Rate Location/Type
05:01PM 29.9617 -95.3436 97° East 171 197 600  Level Houston Center
05:02PM 29.9469 -95.2731 104° East 245 282 2,900 1,560 Climbing Houston Center
05:03PM 29.9411 -95.1894 95° East 272 313 4,000 1,620 Climbing Houston Center
05:04PM 29.9319 -95.0892 96° East 299 344 6,200 2,340 Climbing Houston Center
05:05PM 29.8971 -94.6398 97° East  Level FlightAware Approximate
05:05PM 29.9228 -94.9939 96° East 304 350 8,800  Level Houston Center
05:06PM 29.8817 -94.5008 97° East  Level FlightAware Approximate
05:06PM 29.9139 -94.8806 95° East 310 357 10,800  Level Houston Center
05:07PM 29.9036 -94.7656 96° East 349 402 12,000 1,320 Climbing Houston Center
05:08PM 29.8931 -94.6433 96° East 374 430 13,600 1,440 Climbing Houston Center
05:09PM 29.8806 -94.5172 96° East 392 451 15,100 1,560 Climbing Houston Center
05:10PM 29.8661 -94.3628 96° East 404 465 16,900 1,560 Climbing Houston Center
05:11PM 29.8736 -94.2347 86° East 407 468 18,400 1,140 Climbing Houston Center
05:12PM 29.8925 -94.1217 79° East 410 472 19,300 1,200 Climbing Houston Center
05:13PM 29.9258 -93.9656 76° East 418 481 20,900 1,380 Climbing Houston Center
05:14PM 29.9575 -93.8344 74° East 425 489 22,200 1,320 Climbing Houston Center
05:15PM 29.9894 -93.7044 74° East 425 489 23,700 1,500 Climbing Houston Center
05:16PM 30.0200 -93.5761 75° East 421 484 25,300 1,740 Climbing Houston Center
05:17PM 30.0553 -93.4253 75° East 414 476 27,300 1,620 Climbing Houston Center
05:18PM 30.0839 -93.3017 75° East 405 466 28,700 1,260 Climbing Houston Center
05:19PM 30.1164 -93.1814 73° East 399 459 30,000 1,200 Climbing Houston Center
05:20PM 30.1661 -93.0722 62° Northeast 389 448 31,300 960 Climbing Houston Center
05:22PM 30.2158 -92.9614 63° Northeast 391 450 32,000 780 Climbing Houston Center
05:23PM 30.2786 -92.8222 62° Northeast 408 470 33,000 720 Climbing Houston Center
05:24PM 30.3325 -92.7022 62° Northeast 419 482 33,600 480 Climbing Houston Center
05:25PM 30.3867 -92.5778 63° Northeast 432 497 34,100 540 Climbing Houston Center
05:26PM 30.4439 -92.4517 62° Northeast 442 509 34,800 420 Climbing Houston Center
05:27PM 30.5050 -92.3119 63° Northeast 454 522 35,000 60 Climbing Houston Center
05:28PM 30.5642 -92.1756 63° Northeast 474 545 35,000  Level Houston Center
05:29PM 30.6261 -92.0353 63° Northeast 489 563 35,000  Level Houston Center
05:30PM 30.7008 -91.8661 63° Northeast 493 567 35,000  Level Houston Center
05:31PM 30.7622 -91.7256 63° Northeast 492 566 35,000  Level Houston Center
05:32PM 30.8239 -91.5847 63° Northeast 491 565 35,000  Level Houston Center
05:33PM 30.8858 -91.4417 63° Northeast 496 571 35,000  Level Houston Center
05:34PM 30.9461 -91.3006 63° Northeast 490 564 35,000  Level Houston Center
05:35PM 31.0194 -91.1306 63° Northeast 493 567 35,000  Level Houston Center
05:36PM 31.0803 -90.9881 63° Northeast 492 566 35,000  Level Houston Center
05:37PM 31.1414 -90.8456 63° Northeast 491 565 35,000 240 Level Houston Center
05:38PM 31.2019 -90.7033 64° Northeast 488 562 35,500 720 Climbing Houston Center
05:39PM 31.2603 -90.5650 64° Northeast 478 550 36,600 720 Climbing Houston Center
05:40PM 31.3167 -90.4303 64° Northeast 463 533 37,000 180 Climbing Houston Center
05:41PM 31.3869 -90.2633 64° Northeast 474 545 37,000  Level Houston Center
05:42PM 31.4464 -90.1192 64° Northeast 487 560 37,000  Level Houston Center
05:43PM 31.5081 -89.9719 64° Northeast 499 574 37,000  Level Houston Center
05:44PM 31.5692 -89.8236 64° Northeast 503 579 37,000  Level Houston Center
05:45PM 31.6297 -89.6769 64° Northeast 500 575 37,000  Level Houston Center
05:46PM 31.6942 -89.5194 64° Northeast 503 579 37,000  Level Houston Center
05:47PM 31.7597 -89.3606 64° Northeast 491 565 37,000  Level Memphis Center
05:48PM 31.8211 -89.2108 64° Northeast 491 565 37,000  Level Memphis Center
05:49PM 31.8781 -89.0633 66° East 486 559 37,000  Level Memphis Center
05:51PM 32.0028 -88.7606 64° Northeast 498 573 37,000  Level Atlanta Center
05:52PM 32.0628 -88.6069 65° Northeast 503 579 37,000  Level Atlanta Center
05:53PM 32.1244 -88.4603 64° Northeast 503 579 37,000  Level Atlanta Center
05:54PM 32.1861 -88.3089 64° Northeast 503 579 37,000  Level Atlanta Center
05:55PM 32.2458 -88.1544 65° Northeast 503 579 37,000  Level Atlanta Center
05:56PM 32.3050 -88.0050 65° Northeast 503 579 37,000  Level Atlanta Center
05:57PM 32.3639 -87.8528 65° Northeast 503 579 37,000  Level Atlanta Center
05:58PM 32.4228 -87.7003 65° Northeast 503 579 37,000  Level Atlanta Center
05:59PM 32.4792 -87.5547 65° Northeast 516 594 37,000  Level Atlanta Center
06:00PM 32.5356 -87.4019 66° East 516 594 37,000  Level Atlanta Center
06:01PM 32.5983 -87.2442 65° Northeast 516 594 37,000  Level Atlanta Center
06:02PM 32.6589 -87.0833 66° East 516 594 37,000  Level Atlanta Center
06:03PM 32.7189 -86.9250 66° East 516 594 37,000  Level Atlanta Center
06:04PM 32.7811 -86.7567 66° East 516 594 37,000  Level Atlanta Center
06:05PM 32.8431 -86.5903 66° East 521 600 37,000  Level Atlanta Center
06:06PM 32.9069 -86.4289 65° Northeast 521 600 37,000  Level Atlanta Center
06:07PM 32.9642 -86.2694 67° East 516 594 37,000  Level Atlanta Center
06:08PM 33.0256 -86.1075 66° East 521 600 37,000  Level Atlanta Center
06:09PM 33.0844 -85.9403 67° East 527 606 37,000  Level Atlanta Center
06:10PM 33.1433 -85.7828 66° East 532 612 37,000  Level Atlanta Center
06:11PM 33.1914 -85.6200 71° East 532 612 37,000  Level Atlanta Center
06:12PM 33.2183 -85.4517 79° East 517 595 37,000  Level Atlanta Center
06:13PM 33.2453 -85.2858 79° East 507 583 37,000  Level Atlanta Center
06:14PM 33.2742 -85.1122 79° East 512 589 37,000  Level Atlanta Center
06:15PM 33.2983 -84.9461 80° East 517 595 37,000  Level Atlanta Center
06:16PM 33.3267 -84.7747 79° East 523 602 37,000  Level Atlanta Center
06:17PM 33.3525 -84.6033 80° East 523 602 37,000  Level Atlanta Center
06:18PM 33.3761 -84.4492 80° East 523 602 37,000  Level Atlanta Center
06:19PM 33.4017 -84.2803 80° East 523 602 37,000  Level Atlanta Center
06:20PM 33.4269 -84.1111 80° East 523 602 37,000  Level Atlanta Center
06:21PM 33.4519 -83.9417 80° East 518 596 37,000  Level Atlanta Center
06:22PM 33.4767 -83.7747 80° East 518 596 37,000  Level Atlanta Center
06:23PM 33.5014 -83.6128 80° East 499 574 37,000  Level Atlanta Center
06:24PM 33.5256 -83.4483 80° East 499 574 37,000 -480 Level Atlanta Center
06:25PM 33.5478 -83.2836 81° East 506 582 36,100 -960 Descending Atlanta Center
06:26PM 33.5736 -83.1089 80° East 521 600 35,100 -900 Descending Atlanta Center
06:27PM 33.5994 -82.9414 79° East 521 600 34,400 -900 Descending Atlanta Center
06:28PM 33.6247 -82.7564 81° East 521 600 33,400 -720 Descending Atlanta Center
06:29PM 33.6500 -82.5839 80° East 521 600 33,000 -240 Descending Atlanta Center
06:30PM 33.6731 -82.4189 80° East 513 590 33,000  Level Atlanta Center
06:32PM 33.7211 -82.0811 80° East 511 588 33,000  Level Jacksonville Center
06:33PM 33.7639 -81.9233 72° East 501 577 33,000  Level Jacksonville Center
06:34PM 33.8439 -81.7797 56° Northeast 501 577 33,000 -240 Level Jacksonville Center
06:36PM 33.9217 -81.6497 54° Northeast  Level FlightAware Approximate
06:36PM 34.0019 -81.4922 54° Northeast 504 580 32,300  Level Jacksonville Center
06:37PM 34.0836 -81.3531 55° Northeast 509 586 31,000 -1,440 Descending Jacksonville Center
06:38PM 34.1592 -81.2111 57° Northeast 509 586 29,500 -1,500 Descending Jacksonville Center
06:39PM 34.2364 -81.0742 56° Northeast 509 586 28,000 -1,260 Descending Jacksonville Center
06:40PM 34.3114 -80.9292 58° Northeast 482 555 27,000 -540 Descending Jacksonville Center
06:41PM 34.3864 -80.7917 57° Northeast 465 535 27,000 -240 Level Jacksonville Center
06:42PM 34.4614 -80.6639 55° Northeast 470 541 26,600 -720 Descending Jacksonville Center
06:43PM 34.5339 -80.5258 57° Northeast 470 541 25,600 -1,080 Descending Jacksonville Center
06:46PM 34.7133 -80.1903 57° Northeast 470 541 23,000 -780 Descending Washington Center
06:47PM 34.7872 -80.0631 55° Northeast 460 529 23,000  Level Washington Center
06:48PM 34.8719 -79.9689 42° Northeast 454 522 23,000 -180 Level Washington Center
06:49PM 34.9633 -79.8675 42° Northeast 441 507 22,700 -720 Descending Washington Center
06:50PM 35.0567 -79.7658 42° Northeast 441 507 21,600 -900 Descending Washington Center
06:51PM 35.1519 -79.6617 42° Northeast 446 513 21,000 -360 Descending Washington Center
06:52PM 35.2556 -79.5600 39° Northeast 441 507 20,900 -720 Descending Washington Center
06:52PM 35.2875 -79.5411 26° Northeast 429 494 20,100 -1,980 Descending Washington Center
06:53PM 35.3431 -79.5031 29° Northeast 410 472 19,300 -1,500 Descending Washington Center
06:54PM 35.4328 -79.4414 29° Northeast 364 419 17,900 -1,500 Descending Washington Center
06:55PM 35.5119 -79.3736 35° Northeast 349 402 16,300 -1,740 Descending Washington Center
06:56PM 35.5692 -79.2794 53° Northeast 328 377 14,400 -2,160 Descending Washington Center
06:57PM 35.6242 -79.1900 53° Northeast 319 367 11,700 -2,340 Descending Washington Center
06:58PM 35.6725 -79.1128 52° Northeast 305 351 9,700 -1,740 Descending Washington Center
06:59PM 35.7183 -79.0356 54° Northeast 272 313 8,500 -840 Descending Washington Center
07:00PM 35.7722 -78.9814 39° Northeast 241 277 8,000 -300 Descending Washington Center
07:01PM 35.8358 -78.9408 27° Northeast 256 295 8,000 -180 Level Washington Center
07:02PM 35.8939 -78.8792 41° Northeast 247 284 7,700 -840 Descending Washington Center
07:03PM 35.9478 -78.8222 41° Northeast 250 288 6,300 -1,620 Descending Washington Center
07:04PM 35.9992 -78.7731 38° Northeast 239 275 4,500 -1,680 Descending Washington Center
07:05PM 36.0133 -78.7042 76° East 218 251 3,000 -1,200 Descending Washington Center
07:06PM 35.9611 -78.7125 187° South 185 213 2,200 -900 Descending Washington Center
07:07PM 35.9247 -78.7419 213° Southwest 146 168 1,300 -900 Descending Washington Center